Flight Track Log - Related Links

Times and Time Zones

All times are in EDT time to prevent confusion due to time zone crossing. See the N789AM flight status page for this flight to view local times or setup timezone preferences in your user account.

Time Position Orientation Groundspeed Altitude Reporting Facility
EDT Latitude Longitude Course Direction KTS MPH feet Rate Location/Type
Sat 02:41:46 PM 42.6236 -73.7889 173° South 134 154 5,100  Level Boston Center
Sat 02:42:46 PM 42.5842 -73.7822 173° South 142 163 5,900 694 Climbing Boston Center
Sat 02:43:47 PM 42.5447 -73.7703 167° South 143 165 6,500 541 Climbing Boston Center
Sat 02:44:48 PM 42.5033 -73.7525 162° South 161 185 7,000 590 Climbing Boston Center
Sat 02:45:49 PM 42.4617 -73.7403 168° South 160 184 7,700 645 Climbing Boston Center
Sat 02:46:49 PM 42.4203 -73.7281 168° South 153 176 8,300 545 Climbing Boston Center
Sat 02:47:50 PM 42.3767 -73.7106 163° South 165 190 8,800 429 Climbing Boston Center
Sat 02:48:27 PM 42.3456 -73.7042 171° South 173 199 9,000 309 Climbing Boston Center
Sat 02:49:27 PM 42.2997 -73.7006 177° South 173 199 9,300 300 Climbing Boston Center
Sat 02:50:27 PM 42.2539 -73.6883 169° South 173 199 9,600 50 Climbing Boston Center
Sat 02:51:27 PM 42.2061 -73.6844 177° South 173 199 9,400 -250 Descending Boston Center
Sat 02:52:27 PM 42.1539 -73.6750 172° South 180 207 9,100 50 Descending Boston Center
Sat 02:53:27 PM 42.1083 -73.6631 169° South 180 207 9,500 150 Climbing Boston Center
Sat 02:54:27 PM 42.0583 -73.6508 170° South 180 207 9,400  Descending Boston Center
Sat 02:55:39 PM 42.0086 -73.6386 170° South 180 207 9,500  Climbing Boston Center
Sat 02:56:39 PM 41.9503 -73.6236 169° South 180 207 9,400 -50 Descending Boston Center
Sat 02:57:39 PM 41.9067 -73.6144 171° South 180 207 9,400 -45 Level Boston Center
Sat 02:58:51 PM 41.8464 -73.5967 168° South 186 214 9,300  Descending Boston Center
Sat 02:59:51 PM 41.7922 -73.5844 170° South 179 206 9,400 -200 Climbing Boston Center
Sat 03:00:51 PM 41.7425 -73.5725 170° South 179 206 8,900 -700 Descending Boston Center
Sat 03:01:51 PM 41.6906 -73.5606 170° South 185 213 8,000 -1,078 Descending Boston Center
Sat 03:04:17 PM 41.5667 -73.5333 171° South 184 212 5,200 -1,288 Descending New York TRACON
Sat 03:05:16 PM 41.5167 -73.5167 166° South 185 213 3,600 -1,361 Descending New York TRACON
Sat 03:06:16 PM 41.4667 -73.5000 166° South 174 200 2,500 -800 Descending New York TRACON
Sat 03:07:16 PM 41.4167 -73.4833 166° South 158 182 2,000 -550 Descending New York TRACON
Sat 03:08:16 PM 41.3833 -73.4667 159° South 140 161 1,400 -600 Descending New York TRACON
Sat 03:10:00 PM 41.3667 -73.4667 166° South  Level FlightAware Approximate
Sat 03:17:00 PM 41.3715 -73.4822 166° South  Level Estimated
Sat 03:18:00 PM 41.3715 -73.4822 166° South  Level Estimated
Sat 03:19:00 PM 41.3715 -73.4822 166° South  Level Estimated

Login

Don't have an account? Register now (free) for customized features, flight alerts, and more!